Time;durP1;ratioP1;P1;durP2;ratioP2;P2;SDS_P1;SDS_P2;PMS_P1;PMS_P2;Temp;Humidity;BMP_temperature;BMP_pressure;BME280_temperature;BME280_humidity;BME280_pressure;Samples;Min_cycle;Max_cycle;Signal;HPM_P1;HPM_P2
2023/03/01 00:03:00;;;;;;;21.55;10.65;;;;;;;0.76;83.88;101915.75;8330934;28;20052;-57
2023/03/01 00:07:01;;;;;;;14.25;10.05;;;;;;;0.95;81.45;101915.13;8329028;28;20050;-57
2023/03/01 00:11:09;;;;;;;18.63;10.75;;;;;;;0.51;81.67;101914.69;8329759;28;20046;-57
2023/03/01 00:15:11;;;;;;;22.42;11.05;;;;;;;0.23;83.37;101916.38;8343634;28;20094;-50
2023/03/01 00:19:15;;;;;;;19.23;10.23;;;;;;;0.33;84.09;101920.53;8339578;28;20396;-49
2023/03/01 00:23:15;;;;;;;17.45;9.35;;;;;;;0.69;81.87;101924.81;8342190;28;20570;-47
2023/03/01 00:27:16;;;;;;;19.75;10.07;;;;;;;0.73;81.17;101922.00;8331697;28;20516;-58
2023/03/01 00:31:21;;;;;;;17.48;10.18;;;;;;;0.80;80.95;101918.28;8325000;28;20454;-58
2023/03/01 00:35:22;;;;;;;22.15;9.52;;;;;;;0.97;79.44;101925.72;8332307;28;20037;-57
2023/03/01 00:39:23;;;;;;;17.13;8.63;;;;;;;1.07;78.67;101921.91;8335945;28;20068;-57
2023/03/01 00:43:23;;;;;;;19.33;8.95;;;;;;;1.15;77.88;101919.84;8338051;28;20056;-57
2023/03/01 00:47:23;;;;;;;16.90;8.95;;;;;;;1.22;77.62;101927.63;8325482;28;20100;-57
2023/03/01 00:51:27;;;;;;;14.65;9.35;;;;;;;1.16;77.01;101908.31;8327728;28;20041;-57
2023/03/01 00:55:27;;;;;;;17.30;9.83;;;;;;;1.20;77.12;101918.81;8326839;28;20124;-57
2023/03/01 00:59:28;;;;;;;20.88;9.68;;;;;;;1.16;77.31;101926.94;8330399;28;20045;-57
2023/03/01 01:03:28;;;;;;;17.35;9.27;;;;;;;1.11;76.81;101912.88;8332831;28;20037;-48
2023/03/01 01:07:28;;;;;;;16.63;9.88;;;;;;;1.17;76.83;101908.25;8343593;28;20049;-49
2023/03/01 01:11:30;;;;;;;18.85;9.30;;;;;;;1.19;76.05;101913.53;8348571;28;20033;-50
2023/03/01 01:15:34;;;;;;;16.38;8.82;;;;;;;1.02;76.87;101902.53;8349435;28;20041;-48
2023/03/01 01:19:35;;;;;;;14.20;8.77;;;;;;;0.87;77.31;101893.22;8354029;28;20042;-51
2023/03/01 01:23:37;;;;;;;19.67;8.98;;;;;;;0.66;79.12;101888.53;8355930;28;20128;-50
2023/03/01 01:27:37;;;;;;;19.15;9.80;;;;;;;0.65;79.86;101880.59;8353253;28;20040;-53
2023/03/01 01:31:40;;;;;;;15.80;9.88;;;;;;;0.42;79.48;101872.41;8353332;28;20044;-50
2023/03/01 01:35:40;;;;;;;20.02;10.63;;;;;;;0.27;80.77;101867.53;8349938;28;20091;-52
2023/03/01 01:39:41;;;;;;;18.25;9.52;;;;;;;0.41;80.66;101870.66;8353229;28;20033;-52
2023/03/01 01:43:45;;;;;;;20.50;10.07;;;;;;;0.59;80.14;101870.13;8352927;28;20040;-49
2023/03/01 01:47:48;;;;;;;18.95;10.05;;;;;;;0.28;80.93;101859.50;8352045;28;20521;-51
2023/03/01 01:51:54;;;;;;;20.05;11.18;;;;;;;0.03;82.15;101853.97;8351567;28;20091;-51
2023/03/01 01:56:00;;;;;;;18.13;9.52;;;;;;;0.13;82.69;101851.06;8346745;28;20379;-50
2023/03/01 02:00:07;;;;;;;23.48;9.93;;;;;;;0.11;82.38;101844.91;8349565;28;20045;-52
2023/03/01 02:04:25;;;;;;;20.58;9.98;;;;;;;-0.32;82.55;101848.75;8400509;27;20463;-48
2023/03/01 02:08:30;;;;;;;20.80;11.20;;;;;;;-0.13;83.32;101839.38;8394710;27;20045;-49
2023/03/01 02:12:31;;;;;;;24.17;11.20;;;;;;;-0.28;83.87;101842.44;8392497;27;20041;-52
2023/03/01 02:16:31;;;;;;;20.55;10.75;;;;;;;-0.07;83.24;101839.22;8393455;27;20047;-52
2023/03/01 02:20:50;;;;;;;20.13;10.30;;;;;;;0.26;82.01;101833.84;8391275;27;20041;-52
2023/03/01 02:25:20;;;;;;;17.52;9.13;;;;;;;0.44;80.82;101822.69;8390594;27;20124;-51
2023/03/01 02:29:22;;;;;;;19.10;10.15;;;;;;;0.48;81.16;101825.22;8392177;27;20388;-49
2023/03/01 02:33:23;;;;;;;23.48;10.02;;;;;;;0.51;81.32;101818.91;8391627;27;20402;-50
2023/03/01 02:37:26;;;;;;;21.60;10.77;;;;;;;0.42;81.03;101819.22;8402700;27;20036;-51
2023/03/01 02:41:31;;;;;;;18.02;10.50;;;;;;;0.46;81.06;101826.19;8402417;27;20032;-50
2023/03/01 02:45:33;;;;;;;16.98;10.02;;;;;;;0.39;81.21;101819.31;8403014;27;20041;-51
2023/03/01 02:49:36;;;;;;;19.50;10.38;;;;;;;0.46;81.00;101821.75;8402786;27;20562;-47
2023/03/01 02:53:53;;;;;;;21.55;9.80;;;;;;;0.44;80.68;101828.00;8401905;27;20059;-51
2023/03/01 02:57:56;;;;;;;19.10;10.20;;;;;;;0.44;81.05;101823.56;8386107;27;20064;-48
2023/03/01 03:01:57;;;;;;;21.30;10.57;;;;;;;0.62;80.23;101828.34;8373071;28;20037;-52
2023/03/01 03:05:58;;;;;;;23.67;11.07;;;;;;;0.66;78.90;101823.78;8402167;27;20502;-53
2023/03/01 03:09:59;;;;;;;19.55;10.45;;;;;;;0.83;78.26;101821.50;8405498;28;20498;-57
2023/03/01 03:13:59;;;;;;;19.40;10.02;;;;;;;0.75;78.10;101819.06;8388740;28;20047;-57
2023/03/01 03:18:00;;;;;;;19.52;10.73;;;;;;;0.62;78.29;101806.19;8380315;28;20119;-57
2023/03/01 03:22:01;;;;;;;18.35;9.05;;;;;;;0.60;77.87;101808.00;8379425;28;20210;-52
2023/03/01 03:26:04;;;;;;;20.60;10.35;;;;;;;0.45;78.04;101804.03;8379183;28;20444;-58
2023/03/01 03:30:08;;;;;;;14.57;9.05;;;;;;;0.39;78.58;101804.19;8379977;28;20119;-55
2023/03/01 03:34:17;;;;;;;16.33;9.63;;;;;;;0.23;79.73;101802.91;8377671;28;20052;-57
2023/03/01 03:38:19;;;;;;;19.10;10.65;;;;;;;-0.49;80.89;101795.19;8391618;28;20042;-57
2023/03/01 03:42:21;;;;;;;23.15;11.10;;;;;;;-0.68;84.60;101793.91;8391772;28;20029;-57
2023/03/01 03:46:22;;;;;;;20.92;10.68;;;;;;;-0.35;82.82;101802.78;8372738;28;20044;-57
2023/03/01 03:50:22;;;;;;;22.58;10.98;;;;;;;-0.31;82.32;101805.31;8353315;28;20272;-57
2023/03/01 03:54:23;;;;;;;18.00;9.88;;;;;;;-0.39;82.75;101786.03;8344470;28;20041;-57
2023/03/01 03:58:25;;;;;;;18.77;10.07;;;;;;;-0.38;82.88;101789.59;8341700;28;20516;-51
2023/03/01 04:02:26;;;;;;;20.83;10.93;;;;;;;-0.37;83.22;101792.19;8336702;28;20033;-50
2023/03/01 04:06:26;;;;;;;16.67;10.20;;;;;;;-0.25;82.75;101778.59;8374271;28;20037;-49
2023/03/01 04:10:29;;;;;;;20.60;10.48;;;;;;;-0.27;82.23;101775.09;8374028;28;20046;-48
2023/03/01 04:14:30;;;;;;;21.57;10.83;;;;;;;-0.29;82.65;101768.97;8373813;28;20440;-48
2023/03/01 04:18:30;;;;;;;24.30;11.48;;;;;;;-0.39;83.71;101774.56;8374604;28;20044;-51
2023/03/01 04:22:31;;;;;;;22.75;10.45;;;;;;;-0.40;84.19;101768.38;8373917;28;20132;-51
2023/03/01 04:26:32;;;;;;;20.27;11.13;;;;;;;-0.33;82.72;101763.78;8372861;28;20525;-51
2023/03/01 04:30:35;;;;;;;23.13;11.15;;;;;;;-0.33;82.17;101758.47;8374729;28;20443;-48
2023/03/01 04:34:36;;;;;;;18.63;11.05;;;;;;;-0.21;81.77;101763.44;8387277;28;20032;-51
2023/03/01 04:38:37;;;;;;;19.90;10.82;;;;;;;-0.14;81.06;101765.88;8366379;28;20040;-57
2023/03/01 04:42:38;;;;;;;18.88;10.57;;;;;;;-0.04;80.61;101764.72;8356787;28;20456;-57
2023/03/01 04:46:39;;;;;;;18.73;10.77;;;;;;;0.07;80.57;101763.53;8356133;28;20056;-57
2023/03/01 04:50:39;;;;;;;20.33;11.30;;;;;;;0.12;80.07;101762.47;8364939;28;20040;-57
2023/03/01 04:54:40;;;;;;;22.45;10.82;;;;;;;0.15;79.74;101762.38;8389877;28;20447;-55
2023/03/01 04:58:41;;;;;;;18.73;10.77;;;;;;;0.14;79.64;101755.31;8388151;28;20044;-57
2023/03/01 05:02:43;;;;;;;19.45;11.00;;;;;;;0.09;79.33;101759.03;8389075;28;20037;-56
2023/03/01 05:06:44;;;;;;;23.23;11.57;;;;;;;-0.08;79.67;101755.09;8375624;28;20131;-57
2023/03/01 05:10:48;;;;;;;19.33;11.10;;;;;;;-0.25;80.14;101752.03;8356476;28;20477;-50
2023/03/01 05:14:50;;;;;;;20.42;11.27;;;;;;;-0.17;80.77;101750.03;8354467;28;20166;-48
2023/03/01 05:18:51;;;;;;;22.55;11.32;;;;;;;-0.15;80.90;101758.81;8363290;28;20674;-51
2023/03/01 05:22:54;;;;;;;21.85;11.55;;;;;;;-0.18;80.58;101758.91;8381646;28;20421;-50
2023/03/01 05:26:55;;;;;;;19.63;11.67;;;;;;;-0.22;80.78;101754.59;8387712;28;20424;-49
2023/03/01 05:30:56;;;;;;;22.25;11.85;;;;;;;-0.29;81.88;101754.81;8399412;28;20028;-50
2023/03/01 05:34:56;;;;;;;24.60;11.93;;;;;;;-0.33;81.45;101748.69;8384821;28;20449;-56
2023/03/01 05:38:56;;;;;;;21.02;11.32;;;;;;;-0.34;81.76;101746.06;8388822;28;20059;-56
2023/03/01 05:42:57;;;;;;;24.20;12.27;;;;;;;-0.49;81.83;101755.34;8388952;28;20048;-56
2023/03/01 05:46:57;;;;;;;23.52;12.25;;;;;;;-0.47;82.33;101756.19;8387596;28;20044;-49
2023/03/01 05:51:00;;;;;;;21.83;12.45;;;;;;;-0.52;82.15;101747.47;8377193;28;20047;-56
2023/03/01 05:55:00;;;;;;;28.08;12.40;;;;;;;-0.50;82.37;101745.66;8353160;28;20090;-50
2023/03/01 05:59:02;;;;;;;24.02;12.65;;;;;;;-0.43;82.14;101755.19;8367774;28;20040;-56
2023/03/01 06:03:03;;;;;;;25.08;12.70;;;;;;;-0.38;81.82;101755.94;8386361;28;20040;-56
2023/03/01 06:07:04;;;;;;;27.25;12.82;;;;;;;-0.41;81.32;101758.69;8386703;28;20123;-56
2023/03/01 06:11:05;;;;;;;26.60;12.57;;;;;;;-0.61;82.93;101755.66;8353026;28;20427;-52
2023/03/01 06:15:09;;;;;;;23.45;13.65;;;;;;;-1.01;83.92;101760.25;8338953;28;20037;-55
2023/03/01 06:19:10;;;;;;;23.35;12.25;;;;;;;-1.09;83.78;101758.69;8353285;28;20033;-56
2023/03/01 06:23:10;;;;;;;30.55;13.05;;;;;;;-0.69;83.66;101740.84;8367515;28;20292;-56
2023/03/01 06:27:10;;;;;;;29.52;13.60;;;;;;;-1.10;82.58;101741.91;8420206;28;20051;-56
2023/03/01 06:31:11;;;;;;;24.63;13.50;;;;;;;-1.37;84.55;101737.25;8396875;28;20064;-56
2023/03/01 06:35:14;;;;;;;29.00;14.25;;;;;;;-1.72;85.84;101750.47;8364706;28;20098;-56
2023/03/01 06:39:14;;;;;;;29.75;14.75;;;;;;;-1.55;86.55;101756.28;8361682;28;20037;-56
2023/03/01 06:43:14;;;;;;;30.40;14.00;;;;;;;-1.84;87.45;101753.38;8356505;28;20321;-56
2023/03/01 06:47:15;;;;;;;29.77;14.07;;;;;;;-1.89;88.98;101747.31;8347624;28;20044;-56
2023/03/01 06:51:15;;;;;;;33.72;14.88;;;;;;;-1.87;89.09;101749.94;8375471;28;20733;-56
2023/03/01 06:55:16;;;;;;;29.77;14.02;;;;;;;-1.79;87.65;101746.22;8372004;28;20053;-56
2023/03/01 06:59:17;;;;;;;30.73;15.25;;;;;;;-1.30;87.48;101744.19;8351289;28;20032;-56
2023/03/01 07:03:18;;;;;;;33.80;16.45;;;;;;;-1.04;85.80;101747.06;8351945;28;20033;-56
2023/03/01 07:07:19;;;;;;;31.23;15.30;;;;;;;-0.84;85.53;101739.47;8402393;28;20084;-56
2023/03/01 07:11:19;;;;;;;31.35;14.30;;;;;;;-0.79;87.29;101748.19;8425911;28;20036;-56
2023/03/01 07:15:20;;;;;;;32.92;13.98;;;;;;;-0.43;85.14;101749.88;8397115;28;20506;-57
2023/03/01 07:19:21;;;;;;;25.67;13.95;;;;;;;0.01;84.05;101752.13;8366287;28;20036;-56
2023/03/01 07:23:22;;;;;;;27.90;14.27;;;;;;;0.22;82.35;101749.78;8358649;28;20139;-56
2023/03/01 07:27:22;;;;;;;23.27;13.15;;;;;;;0.47;82.08;101743.69;8362909;28;20033;-57
2023/03/01 07:31:22;;;;;;;28.02;14.85;;;;;;;0.88;80.97;101734.38;8367604;28;20036;-57
2023/03/01 07:35:25;;;;;;;25.08;13.45;;;;;;;1.17;81.54;101739.59;8372910;28;20378;-57
2023/03/01 07:39:26;;;;;;;23.02;13.57;;;;;;;1.46;79.24;101728.81;8344017;28;20037;-56
2023/03/01 07:43:29;;;;;;;23.77;13.38;;;;;;;1.63;78.18;101726.41;8374244;28;20067;-56
2023/03/01 07:47:30;;;;;;;26.17;13.10;;;;;;;1.75;77.23;101728.66;8365837;28;20090;-52
2023/03/01 07:51:30;;;;;;;28.20;13.00;;;;;;;1.69;76.86;101720.88;8346916;28;20061;-49
2023/03/01 07:55:31;;;;;;;23.35;13.27;;;;;;;1.73;76.27;101725.16;8333002;28;20041;-50
2023/03/01 07:59:32;;;;;;;23.02;13.43;;;;;;;1.73;76.28;101723.38;8350242;28;20044;-52
2023/03/01 08:03:33;;;;;;;24.00;12.55;;;;;;;1.98;76.12;101734.00;8394930;28;20033;-48
2023/03/01 08:07:34;;;;;;;24.60;13.13;;;;;;;2.28;75.25;101727.50;8374678;28;20559;-50
2023/03/01 08:11:34;;;;;;;25.10;13.65;;;;;;;2.57;75.36;101716.56;8373407;28;20398;-52
2023/03/01 08:15:35;;;;;;;26.92;13.43;;;;;;;2.69;75.41;101728.56;8370555;28;20055;-51
2023/03/01 08:19:35;;;;;;;25.80;14.82;;;;;;;2.74;73.40;101716.75;8373019;28;20566;-51
2023/03/01 08:23:36;;;;;;;22.30;13.15;;;;;;;2.94;73.51;101714.16;8381427;28;20051;-51
2023/03/01 08:27:37;;;;;;;26.98;14.77;;;;;;;3.01;71.33;101720.09;8348351;28;20123;-50
2023/03/01 08:31:40;;;;;;;28.42;14.75;;;;;;;3.01;70.80;101710.28;8370372;28;20067;-49
2023/03/01 08:35:40;;;;;;;27.20;14.68;;;;;;;3.07;70.70;101719.84;8383899;28;20037;-51
2023/03/01 08:39:41;;;;;;;33.05;13.75;;;;;;;3.31;70.13;101725.03;8372774;28;20166;-47
2023/03/01 08:43:41;;;;;;;27.27;14.52;;;;;;;3.36;69.47;101728.34;8351852;28;20346;-50
2023/03/01 08:47:42;;;;;;;24.55;13.38;;;;;;;3.59;70.54;101725.56;8340645;28;20499;-49
2023/03/01 08:51:43;;;;;;;28.73;14.07;;;;;;;3.67;68.26;101718.09;8359758;28;20063;-46
2023/03/01 08:55:44;;;;;;;25.73;14.95;;;;;;;3.98;68.70;101713.09;8372117;28;20041;-50
2023/03/01 08:59:44;;;;;;;28.90;15.10;;;;;;;3.95;67.88;101713.25;8372508;28;20048;-49
2023/03/01 09:03:45;;;;;;;27.80;15.02;;;;;;;4.12;68.06;101708.91;8371815;28;20048;-48
2023/03/01 09:07:45;;;;;;;24.05;13.88;;;;;;;4.05;67.73;101711.88;8371938;28;20514;-49
2023/03/01 09:11:46;;;;;;;29.20;15.52;;;;;;;4.04;67.68;101702.13;8347508;28;20038;-52
2023/03/01 09:15:47;;;;;;;26.63;15.40;;;;;;;4.23;66.58;101703.91;8337772;28;20124;-50
2023/03/01 09:19:48;;;;;;;29.17;15.15;;;;;;;4.72;66.05;101700.63;8343188;28;20033;-51
2023/03/01 09:23:49;;;;;;;26.45;15.73;;;;;;;5.12;64.60;101695.91;8369255;28;20041;-47
2023/03/01 09:27:52;;;;;;;29.50;14.73;;;;;;;5.39;62.51;101704.34;8371606;28;20033;-48
2023/03/01 09:31:54;;;;;;;26.90;13.73;;;;;;;5.59;61.28;101690.78;8371317;28;20844;-50
2023/03/01 09:36:00;;;;;;;30.08;15.23;;;;;;;5.10;62.98;101683.53;8370603;28;20036;-50
2023/03/01 09:40:03;;;;;;;26.63;14.07;;;;;;;6.04;61.71;101683.84;8372149;28;20044;-49
2023/03/01 09:44:15;;;;;;;28.65;13.93;;;;;;;6.71;59.58;101683.63;8370942;28;20044;-51
2023/03/01 09:48:21;;;;;;;24.48;14.40;;;;;;;8.83;56.03;101670.34;8387282;28;20054;-50
2023/03/01 09:52:34;;;;;;;24.27;13.52;;;;;;;9.56;53.84;101668.94;8390974;28;20047;-51
2023/03/01 09:56:44;;;;;;;27.00;13.02;;;;;;;10.00;51.20;101661.25;8357310;28;20112;-55
2023/03/01 10:00:48;;;;;;;24.98;13.65;;;;;;;9.66;51.97;101661.91;8338077;28;20112;-56
2023/03/01 10:04:52;;;;;;;22.27;13.00;;;;;;;9.45;52.71;101668.78;8363963;28;20036;-57
2023/03/01 10:09:15;;;;;;;23.08;13.35;;;;;;;10.42;51.34;101652.81;8371252;28;20065;-50
2023/03/01 10:13:25;;;;;;;19.63;11.70;;;;;;;9.87;50.90;101646.91;8371378;28;20066;-50
2023/03/01 10:17:50;;;;;;;22.52;12.40;;;;;;;10.39;49.76;101650.31;8370535;28;20131;-50
2023/03/01 10:21:51;;;;;;;23.30;13.52;;;;;;;10.40;49.68;101649.34;8369715;28;20048;-50
2023/03/01 10:26:06;;;;;;;18.58;11.57;;;;;;;10.84;48.03;101636.13;8376650;28;20306;-49
2023/03/01 10:30:33;;;;;;;24.15;12.65;;;;;;;11.32;49.27;101629.66;8377879;28;20055;-49
2023/03/01 10:34:35;;;;;;;20.80;12.48;;;;;;;11.47;48.32;101628.47;8400736;28;20043;-50
2023/03/01 10:38:57;;;;;;;22.77;12.25;;;;;;;11.39;46.92;101620.09;8425446;28;20028;-50
2023/03/01 10:43:00;;;;;;;20.10;11.38;;;;;;;11.40;47.00;101616.41;8422192;28;20532;-50
2023/03/01 10:47:01;;;;;;;22.17;12.52;;;;;;;11.72;47.54;101614.75;8373853;28;20493;-49
2023/03/01 10:55:29;;;;;;;19.70;11.75;;;;;;;12.40;45.96;101602.94;8406046;27;20393;-52
2023/03/01 10:59:33;;;;;;;17.27;11.07;;;;;;;12.49;45.81;101597.63;8395804;27;20414;-51
2023/03/01 11:03:36;;;;;;;20.67;12.40;;;;;;;11.89;45.94;101587.19;8398017;27;20043;-50
2023/03/01 11:07:48;;;;;;;20.15;12.63;;;;;;;12.33;45.93;101590.88;8396894;28;20127;-51
2023/03/01 11:12:00;;;;;;;21.92;12.80;;;;;;;13.00;44.63;101581.56;8383557;28;20313;-52
2023/03/01 11:16:06;;;;;;;18.38;11.93;;;;;;;12.88;44.11;101577.16;8375835;28;20063;-52
2023/03/01 11:24:47;;;;;;;19.08;11.90;;;;;;;12.70;45.19;101559.69;8307290;27;20398;-58
2023/03/01 11:28:53;;;;;;;21.58;12.27;;;;;;;12.83;44.14;101549.53;8282935;28;20123;-58
2023/03/01 11:33:34;;;;;;;21.13;12.45;;;;;;;12.64;44.20;101538.50;8297181;28;20042;-58
2023/03/01 11:41:58;;;;;;;23.45;13.10;;;;;;;13.23;43.19;101523.44;8355939;27;20366;-58
2023/03/01 11:46:20;;;;;;;17.38;11.77;;;;;;;14.57;41.98;101514.81;8343459;28;20526;-57
2023/03/01 11:50:44;;;;;;;21.30;12.38;;;;;;;13.63;42.56;101510.78;8316286;28;20411;-58
2023/03/01 11:55:15;;;;;;;20.45;12.35;;;;;;;14.22;41.19;101509.00;8337461;28;20136;-53
2023/03/01 11:59:33;;;;;;;20.00;12.13;;;;;;;14.51;42.26;101503.63;8350900;28;20056;-53
2023/03/01 12:03:51;;;;;;;21.65;13.60;;;;;;;13.38;43.77;101505.81;8346287;28;20150;-51
2023/03/01 12:08:16;;;;;;;24.70;14.20;;;;;;;11.79;44.99;101499.53;8345781;28;20473;-53
2023/03/01 12:12:45;;;;;;;22.83;12.50;;;;;;;11.41;45.22;101492.72;8336970;28;20036;-53
2023/03/01 12:17:06;;;;;;;20.50;12.63;;;;;;;13.39;43.39;101483.94;8336704;28;20421;-51
2023/03/01 12:21:46;;;;;;;23.50;12.50;;;;;;;12.11;44.19;101471.63;8357797;28;20075;-53
2023/03/01 12:25:58;;;;;;;20.65;12.43;;;;;;;12.95;43.57;101464.34;8341910;28;20525;-52
2023/03/01 12:30:25;;;;;;;18.98;12.32;;;;;;;13.65;43.23;101476.19;8343324;28;20045;-53
2023/03/01 12:34:55;;;;;;;18.83;10.98;;;;;;;13.48;41.87;101474.13;8339593;28;20045;-57
2023/03/01 12:39:23;;;;;;;18.35;10.60;;;;;;;13.34;42.06;101460.91;8319664;28;20089;-58
2023/03/01 12:44:03;;;;;;;19.90;10.23;;;;;;;13.26;42.83;101464.28;8339067;28;20041;-58
2023/03/01 12:48:37;;;;;;;16.05;9.98;;;;;;;12.60;42.62;101464.66;8309191;28;20045;-58
2023/03/01 12:52:43;;;;;;;16.70;9.67;;;;;;;12.83;42.94;101454.53;8323100;28;20045;-53
2023/03/01 12:56:51;;;;;;;15.65;10.02;;;;;;;12.64;43.16;101463.41;8323740;28;20048;-52
2023/03/01 13:01:19;;;;;;;18.17;11.18;;;;;;;11.04;45.92;101458.72;8325376;28;20071;-52
2023/03/01 13:18:34;;;;;;;18.95;10.55;;;;;;;8.53;50.00;101420.84;8347042;27;20451;-57
2023/03/01 13:22:35;;;;;;;22.17;11.32;;;;;;;8.34;50.41;101433.84;8372975;28;20037;-51
2023/03/01 13:27:16;;;;;;;20.30;10.68;;;;;;;8.27;51.40;101421.78;8361692;28;20071;-56
2023/03/01 13:35:42;;;;;;;16.67;10.18;;;;;;;8.34;50.33;101423.06;8345154;27;20552;-57
2023/03/01 13:39:43;;;;;;;18.98;10.43;;;;;;;8.39;50.72;101410.16;8347030;28;20056;-57
2023/03/01 13:43:46;;;;;;;17.73;10.55;;;;;;;8.38;51.54;101411.13;8348202;28;20044;-57
2023/03/01 13:47:52;;;;;;;17.05;10.82;;;;;;;8.57;51.46;101416.97;8346612;28;20533;-56
2023/03/01 13:51:53;;;;;;;18.38;11.35;;;;;;;8.46;51.05;101412.34;8347353;28;20065;-52
2023/03/01 13:56:33;;;;;;;17.98;10.88;;;;;;;8.45;51.75;101409.75;8344771;28;20041;-58
2023/03/01 14:00:37;;;;;;;20.45;11.57;;;;;;;8.37;52.03;101395.91;8341256;28;20049;-57
2023/03/01 14:04:38;;;;;;;;;;;;;;;8.46;52.29;101395.28;8348019;28;20056;-58
2023/03/01 14:08:40;;;;;;;20.02;10.75;;;;;;;8.46;51.75;101397.97;8346282;28;19931;-57
2023/03/01 14:12:52;;;;;;;25.83;12.32;;;;;;;8.39;52.10;101397.56;8346400;28;20041;-57
2023/03/01 14:17:24;;;;;;;24.48;12.93;;;;;;;8.38;52.41;101389.59;8346984;28;20033;-51
2023/03/01 14:21:26;;;;;;;20.98;12.10;;;;;;;8.34;53.32;101388.03;8340183;28;20415;-52
2023/03/01 14:25:30;;;;;;;19.80;12.00;;;;;;;8.41;53.63;101375.88;8342209;28;20042;-51
2023/03/01 14:29:36;;;;;;;19.55;12.25;;;;;;;8.38;53.98;101366.19;8345977;28;20103;-51
2023/03/01 14:33:39;;;;;;;21.13;11.90;;;;;;;8.42;53.93;101361.44;8346536;28;20095;-54
2023/03/01 14:37:40;;;;;;;19.13;11.60;;;;;;;8.49;53.54;101346.56;8346055;28;20045;-52
2023/03/01 14:41:40;;;;;;;21.42;11.93;;;;;;;8.54;54.07;101341.72;8344800;28;20095;-51
2023/03/01 14:45:48;;;;;;;20.33;11.00;;;;;;;8.53;53.97;101331.91;8330135;28;20041;-52
2023/03/01 14:49:55;;;;;;;19.95;11.32;;;;;;;8.51;53.55;101321.22;8323923;28;20076;-58
2023/03/01 14:53:56;;;;;;;19.23;11.20;;;;;;;8.63;53.59;101319.53;8321876;28;20570;-58
2023/03/01 14:57:58;;;;;;;17.23;9.82;;;;;;;8.62;53.17;101312.38;8324325;28;20377;-51
2023/03/01 15:01:59;;;;;;;16.80;10.32;;;;;;;8.56;53.08;101324.47;8320102;28;20445;-53
2023/03/01 15:06:02;;;;;;;17.60;9.93;;;;;;;8.56;53.24;101310.13;8324345;28;20457;-52
2023/03/01 15:10:05;;;;;;;16.08;9.68;;;;;;;8.56;54.01;101299.34;8323356;28;20045;-51
2023/03/01 15:14:28;;;;;;;14.23;9.57;;;;;;;8.60;54.82;101298.19;8321697;28;20055;-54
2023/03/01 15:18:29;;;;;;;17.92;10.20;;;;;;;8.53;53.95;101299.56;8322509;28;20052;-53
2023/03/01 15:22:30;;;;;;;16.35;10.23;;;;;;;8.57;55.36;101298.41;8320962;28;20055;-54
2023/03/01 15:26:41;;;;;;;18.63;10.63;;;;;;;8.51;54.96;101290.75;8320944;28;20486;-54
2023/03/01 15:30:41;;;;;;;14.73;9.65;;;;;;;8.50;55.35;101289.00;8325247;28;20546;-54
2023/03/01 15:34:42;;;;;;;22.63;10.95;;;;;;;8.49;55.28;101287.28;8320602;28;20418;-53
2023/03/01 15:39:00;;;;;;;14.40;10.10;;;;;;;8.57;55.26;101291.16;8321669;28;20034;-51
2023/03/01 15:43:03;;;;;;;17.90;10.73;;;;;;;8.52;54.78;101290.63;8306273;28;20037;-53
2023/03/01 15:47:22;;;;;;;14.88;10.77;;;;;;;8.48;55.17;101282.88;8310516;28;20037;-53
2023/03/01 15:51:30;;;;;;;15.07;9.60;;;;;;;8.41;55.24;101276.19;8321398;28;20557;-58
2023/03/01 15:55:33;;;;;;;16.77;9.55;;;;;;;8.33;56.30;101273.19;8307633;28;20108;-59
2023/03/01 15:59:33;;;;;;;19.73;9.18;;;;;;;8.33;55.49;101273.19;8310163;28;20372;-58
2023/03/01 16:03:33;;;;;;;15.80;9.25;;;;;;;8.26;55.58;101261.97;8316389;28;20034;-59
2023/03/01 16:07:38;;;;;;;17.70;9.25;;;;;;;8.25;55.88;101267.47;8321395;28;20132;-58
2023/03/01 16:11:40;;;;;;;16.83;9.25;;;;;;;8.18;55.25;101272.41;8319813;28;20115;-57
2023/03/01 16:15:41;;;;;;;19.33;9.50;;;;;;;8.16;55.78;101258.16;8319718;28;20553;-57
2023/03/01 16:19:41;;;;;;;17.88;9.02;;;;;;;8.17;55.68;101250.97;8320082;28;20042;-58
2023/03/01 16:23:44;;;;;;;18.63;9.45;;;;;;;8.07;55.76;101256.97;8316676;28;20037;-57
2023/03/01 16:27:47;;;;;;;15.05;8.90;;;;;;;8.02;55.95;101256.44;8308248;28;20081;-58
2023/03/01 16:31:48;;;;;;;15.50;8.48;;;;;;;7.94;56.16;101261.47;8332291;28;20037;-58
2023/03/01 16:35:49;;;;;;;19.30;9.52;;;;;;;7.92;55.58;101260.75;8313632;28;20044;-58
2023/03/01 16:39:50;;;;;;;15.68;8.35;;;;;;;7.82;56.07;101265.03;8307290;28;20677;-58
2023/03/01 16:43:51;;;;;;;17.08;9.23;;;;;;;7.70;56.06;101265.00;8314251;28;20061;-58
2023/03/01 16:47:52;;;;;;;15.18;8.50;;;;;;;7.73;55.98;101271.03;8318816;28;20049;-58
2023/03/01 16:51:53;;;;;;;15.85;8.75;;;;;;;7.63;56.09;101269.91;8319018;28;20029;-58
2023/03/01 16:55:55;;;;;;;19.85;8.07;;;;;;;7.54;55.93;101275.91;8313010;28;20423;-58
2023/03/01 16:59:56;;;;;;;13.45;7.72;;;;;;;7.43;55.76;101278.47;8316768;28;20033;-58
2023/03/01 17:03:56;;;;;;;13.32;7.38;;;;;;;7.32;56.09;101281.00;8313360;28;20042;-58
2023/03/01 17:07:59;;;;;;;12.27;7.72;;;;;;;7.28;55.83;101279.50;8316517;28;20064;-58
2023/03/01 17:12:00;;;;;;;11.55;7.35;;;;;;;7.28;55.54;101278.63;8317728;28;20130;-58
2023/03/01 17:16:04;;;;;;;13.77;7.40;;;;;;;7.19;55.86;101285.47;8318023;28;20103;-58
2023/03/01 17:20:05;;;;;;;14.13;7.35;;;;;;;7.17;55.68;101279.31;8305329;28;20398;-53
2023/03/01 17:24:06;;;;;;;16.20;7.07;;;;;;;7.02;56.12;101277.63;8312337;28;20033;-57
2023/03/01 17:28:06;;;;;;;15.15;7.68;;;;;;;6.98;55.88;101270.75;8307909;28;20037;-58
2023/03/01 17:32:08;;;;;;;14.63;7.10;;;;;;;6.93;55.85;101289.00;8308189;28;20040;-59
2023/03/01 17:36:09;;;;;;;14.05;7.25;;;;;;;6.80;56.88;101298.81;8317311;28;20041;-57
2023/03/01 17:40:10;;;;;;;23.90;7.72;;;;;;;6.74;57.10;101290.28;8307799;28;20048;-52
2023/03/01 17:44:11;;;;;;;12.38;7.10;;;;;;;6.64;57.03;101292.69;8316255;28;20037;-52
2023/03/01 17:48:11;;;;;;;12.43;7.28;;;;;;;6.61;57.28;101292.88;8317025;28;20067;-52
2023/03/01 17:52:11;;;;;;;17.15;7.68;;;;;;;6.54;57.14;101296.91;8316268;28;20050;-52
2023/03/01 17:56:12;;;;;;;14.77;7.68;;;;;;;6.56;56.94;101297.66;8316960;28;20041;-52
2023/03/01 18:00:15;;;;;;;11.50;7.55;;;;;;;6.52;57.55;101298.81;8315544;28;20037;-50
2023/03/01 18:04:17;;;;;;;12.23;7.50;;;;;;;6.39;57.77;101292.50;8313329;28;20120;-52
2023/03/01 18:08:17;;;;;;;15.48;8.13;;;;;;;6.35;57.57;101296.34;8315745;28;20070;-52
2023/03/01 18:12:18;;;;;;;16.05;8.05;;;;;;;6.26;57.96;101288.84;8315131;28;20547;-52
2023/03/01 18:16:20;;;;;;;13.38;7.95;;;;;;;6.15;58.16;101296.69;8307727;28;20034;-52
2023/03/01 18:20:20;;;;;;;13.88;8.02;;;;;;;6.15;58.07;101299.38;8315524;28;20142;-50
2023/03/01 18:24:21;;;;;;;12.68;7.25;;;;;;;6.18;58.21;101303.66;8320921;28;20037;-53
2023/03/01 18:28:21;;;;;;;13.90;7.93;;;;;;;6.04;58.28;101297.34;8322860;28;20034;-51
2023/03/01 18:32:23;;;;;;;15.60;8.20;;;;;;;6.03;58.51;101300.09;8322342;28;20656;-52
2023/03/01 18:36:26;;;;;;;19.33;8.23;;;;;;;5.99;58.57;101285.16;8322747;28;20029;-50
2023/03/01 18:40:28;;;;;;;13.45;8.13;;;;;;;5.87;58.90;101292.13;8323062;28;20029;-53
2023/03/01 18:44:29;;;;;;;17.17;8.63;;;;;;;5.84;58.74;101280.72;8322344;28;20495;-53
2023/03/01 18:48:30;;;;;;;14.43;8.27;;;;;;;5.69;59.44;101285.16;8322120;28;20488;-49
2023/03/01 18:52:30;;;;;;;16.17;8.85;;;;;;;5.76;59.22;101291.88;8320280;28;20332;-52
2023/03/01 18:56:33;;;;;;;20.45;8.52;;;;;;;5.66;59.41;101279.09;8322636;28;20048;-49
2023/03/01 19:00:33;;;;;;;17.98;8.90;;;;;;;5.62;59.48;101285.59;8320236;28;20736;-50
2023/03/01 19:04:34;;;;;;;16.42;8.50;;;;;;;5.48;59.83;101285.53;8319489;28;20733;-50
2023/03/01 19:08:34;;;;;;;15.00;8.07;;;;;;;5.55;59.55;101278.88;8315954;28;20033;-51
2023/03/01 19:12:35;;;;;;;15.02;8.05;;;;;;;5.39;60.48;101280.72;8306109;28;20049;-52
2023/03/01 19:16:35;;;;;;;15.02;8.35;;;;;;;5.38;60.56;101287.91;8322158;28;20406;-52